createdAt,value
2023-07-03T00:00:24.016Z,4.70
2023-07-03T00:02:33.343Z,5.67
2023-07-03T00:04:47.190Z,5.10
2023-07-03T00:06:58.177Z,5.13
2023-07-03T00:09:06.841Z,4.70
2023-07-03T00:11:15.038Z,5.50
2023-07-03T00:13:23.358Z,4.73
2023-07-03T00:15:31.759Z,4.97
2023-07-03T00:17:40.085Z,5.13
2023-07-03T00:19:49.748Z,5.23
2023-07-03T00:22:00.403Z,4.80
2023-07-03T00:24:08.562Z,4.87
2023-07-03T00:26:16.822Z,5.40
2023-07-03T00:28:25.225Z,5.27
2023-07-03T00:30:33.434Z,5.00
2023-07-03T00:32:41.753Z,4.93
2023-07-03T00:34:51.389Z,4.67
2023-07-03T00:36:59.976Z,4.80
2023-07-03T00:39:09.200Z,4.30
2023-07-03T00:41:17.442Z,4.57
2023-07-03T00:43:30.681Z,4.40
2023-07-03T00:45:40.913Z,4.30
2023-07-03T00:47:52.072Z,4.33
2023-07-03T00:50:01.901Z,4.30
2023-07-03T00:52:11.884Z,4.67
2023-07-03T00:54:20.117Z,4.50
2023-07-03T00:56:28.341Z,4.20
2023-07-03T00:58:38.040Z,4.10
2023-07-03T01:00:51.114Z,4.67
2023-07-03T01:03:04.175Z,4.00
2023-07-03T01:05:18.429Z,4.13
2023-07-03T01:07:30.551Z,4.03
2023-07-03T01:09:45.232Z,3.90
2023-07-03T01:11:53.868Z,4.00
2023-07-03T01:14:03.623Z,4.07
2023-07-03T01:16:12.876Z,3.50
2023-07-03T01:18:25.120Z,3.90
2023-07-03T01:20:44.784Z,3.67
2023-07-03T01:23:00.911Z,3.90
2023-07-03T01:25:15.376Z,3.50
2023-07-03T01:27:27.841Z,3.07
2023-07-03T01:29:41.715Z,3.37
2023-07-03T01:31:53.752Z,3.43
2023-07-03T01:34:03.394Z,3.87
2023-07-03T01:36:13.646Z,3.50
2023-07-03T01:38:25.577Z,3.47
2023-07-03T01:40:36.716Z,3.83
2023-07-03T01:42:46.575Z,3.87
2023-07-03T01:44:54.930Z,3.20
2023-07-03T01:47:11.417Z,3.30
2023-07-03T01:49:19.863Z,3.10
2023-07-03T01:51:37.664Z,3.40
2023-07-03T01:53:50.811Z,3.33
2023-07-03T01:56:08.302Z,3.70
2023-07-03T01:58:25.725Z,3.37
2023-07-03T02:00:41.709Z,3.37
2023-07-03T02:02:54.072Z,3.07
2023-07-03T02:05:08.715Z,3.17
2023-07-03T02:07:18.533Z,3.10
2023-07-03T02:09:27.186Z,3.63
2023-07-03T02:11:37.112Z,3.50
2023-07-03T02:13:45.851Z,3.10
2023-07-03T02:15:54.033Z,3.10
2023-07-03T02:18:03.287Z,3.03
2023-07-03T02:20:15.674Z,3.30
2023-07-03T02:22:24.281Z,3.30
2023-07-03T02:24:32.609Z,3.40
2023-07-03T02:26:42.760Z,3.50
2023-07-03T02:28:51.303Z,3.30
2023-07-03T02:31:02.864Z,3.17
2023-07-03T02:33:12.076Z,3.43
2023-07-03T02:35:20.342Z,3.27
2023-07-03T02:37:28.556Z,3.13
2023-07-03T02:39:36.835Z,2.80
2023-07-03T02:41:46.498Z,2.87
2023-07-03T02:43:55.033Z,2.77
2023-07-03T02:46:05.440Z,3.10
2023-07-03T02:48:15.044Z,3.07
2023-07-03T02:50:23.336Z,3.40
2023-07-03T02:52:31.802Z,3.33
2023-07-03T02:54:39.942Z,3.03
2023-07-03T02:56:49.506Z,3.20
2023-07-03T02:58:59.542Z,2.90
2023-07-03T03:01:08.897Z,3.03
2023-07-03T03:03:20.291Z,3.10
2023-07-03T03:05:28.600Z,3.27
2023-07-03T03:07:36.919Z,3.10
2023-07-03T03:09:45.173Z,3.43
2023-07-03T03:11:54.864Z,3.20
2023-07-03T03:14:03.113Z,3.00
2023-07-03T03:16:10.866Z,3.80
2023-07-03T03:18:20.214Z,3.33
2023-07-03T03:20:28.514Z,3.40
2023-07-03T03:22:36.744Z,3.20
2023-07-03T03:24:48.699Z,3.20
2023-07-03T03:26:58.298Z,3.43
2023-07-03T03:29:06.448Z,3.70
2023-07-03T03:31:14.748Z,3.20
2023-07-03T03:33:22.989Z,3.33
2023-07-03T03:35:31.281Z,3.53
2023-07-03T03:37:39.514Z,3.27
2023-07-03T03:39:47.726Z,3.80
2023-07-03T03:41:57.236Z,3.57
2023-07-03T03:44:05.887Z,3.60
2023-07-03T03:46:14.200Z,3.50
2023-07-03T03:48:22.598Z,3.40
2023-07-03T03:50:30.937Z,3.53
2023-07-03T03:52:39.223Z,3.60
2023-07-03T03:54:48.569Z,3.37
2023-07-03T03:56:58.343Z,3.60
2023-07-03T03:59:06.586Z,3.30
2023-07-03T04:01:14.919Z,3.07
2023-07-03T04:03:23.284Z,3.17
2023-07-03T04:05:31.734Z,3.13
2023-07-03T04:07:41.030Z,3.03
2023-07-03T04:09:49.264Z,2.93
2023-07-03T04:11:59.124Z,2.53
2023-07-03T04:14:07.366Z,2.93
2023-07-03T04:16:15.756Z,3.50
2023-07-03T04:18:25.331Z,3.03
2023-07-03T04:20:34.417Z,2.60
2023-07-03T04:22:42.877Z,2.97
2023-07-03T04:24:51.100Z,2.73
2023-07-03T04:27:00.676Z,2.77
2023-07-03T04:29:08.893Z,2.73
2023-07-03T04:31:20.352Z,2.60
2023-07-03T04:33:28.632Z,2.37
2023-07-03T04:35:38.061Z,2.60
2023-07-03T04:37:46.778Z,2.83
2023-07-03T04:39:55.386Z,2.27
2023-07-03T04:42:05.444Z,2.37
2023-07-03T04:44:14.918Z,2.63
2023-07-03T04:46:27.555Z,2.50
2023-07-03T04:48:37.807Z,2.30
2023-07-03T04:50:47.336Z,2.30
2023-07-03T04:52:57.451Z,2.43
2023-07-03T04:55:08.834Z,2.00
2023-07-03T04:57:18.396Z,2.10
2023-07-03T04:59:26.647Z,1.93
2023-07-03T05:01:36.835Z,2.10
2023-07-03T05:03:45.156Z,2.03
2023-07-03T05:05:53.720Z,2.33
2023-07-03T05:08:02.237Z,1.90
2023-07-03T05:10:12.386Z,2.33
2023-07-03T05:12:21.938Z,2.23
2023-07-03T05:14:30.206Z,2.20
2023-07-03T05:16:39.954Z,1.80
2023-07-03T05:18:48.146Z,1.80
2023-07-03T05:20:59.215Z,1.73
2023-07-03T05:23:07.423Z,2.60
2023-07-03T05:25:18.043Z,2.00
2023-07-03T05:27:27.643Z,1.97
2023-07-03T05:29:36.188Z,2.30
2023-07-03T05:31:45.963Z,2.07
2023-07-03T05:33:54.322Z,2.00
2023-07-03T05:36:03.801Z,2.17
2023-07-03T05:38:14.761Z,1.90
2023-07-03T05:40:23.023Z,2.00
2023-07-03T05:42:32.491Z,1.83
2023-07-03T05:44:40.693Z,2.10
2023-07-03T05:46:48.897Z,2.10
2023-07-03T05:48:57.060Z,2.13
2023-07-03T05:51:05.373Z,2.07
2023-07-03T05:53:13.755Z,2.20
2023-07-03T05:55:22.188Z,2.10
2023-07-03T05:57:30.500Z,2.03
2023-07-03T05:59:41.898Z,2.17
2023-07-03T06:01:50.472Z,2.00
2023-07-03T06:03:59.327Z,2.20
2023-07-03T06:06:09.653Z,2.50
2023-07-03T06:08:17.872Z,1.93
2023-07-03T06:10:26.148Z,2.17
2023-07-03T06:12:34.705Z,1.93
2023-07-03T06:14:44.266Z,2.00
2023-07-03T06:16:55.356Z,2.50
2023-07-03T06:19:03.675Z,2.10
2023-07-03T06:21:11.882Z,1.90
2023-07-03T06:23:20.110Z,2.33
2023-07-03T06:25:28.406Z,2.50
2023-07-03T06:27:38.963Z,2.40
2023-07-03T06:29:48.586Z,2.47
2023-07-03T06:31:58.776Z,2.50
2023-07-03T06:34:09.774Z,2.50
2023-07-03T06:36:22.243Z,2.43
2023-07-03T06:38:32.578Z,2.10
2023-07-03T06:40:40.752Z,2.20
2023-07-03T06:42:48.951Z,2.50
2023-07-03T06:44:58.457Z,2.70
2023-07-03T06:47:07.327Z,2.10
2023-07-03T06:49:15.905Z,2.00
2023-07-03T06:51:27.661Z,2.40
2023-07-03T06:53:36.236Z,2.23
2023-07-03T06:55:44.457Z,2.70
2023-07-03T06:57:52.885Z,2.13
2023-07-03T07:00:03.215Z,2.37
2023-07-03T07:02:11.512Z,2.53
2023-07-03T07:04:24.571Z,2.47
2023-07-03T07:06:33.995Z,2.73
2023-07-03T07:08:42.733Z,2.43
2023-07-03T07:10:50.978Z,2.57
2023-07-03T07:13:02.327Z,2.47
2023-07-03T07:15:12.692Z,2.27
2023-07-03T07:17:23.116Z,2.50
2023-07-03T07:19:34.604Z,2.13
2023-07-03T07:21:43.529Z,1.70
2023-07-03T07:23:53.641Z,2.17
2023-07-03T07:26:01.834Z,2.10
2023-07-03T07:28:10.057Z,2.13
2023-07-03T07:30:19.695Z,2.07
2023-07-03T07:32:27.974Z,2.00
2023-07-03T07:34:36.373Z,2.13
2023-07-03T07:36:44.748Z,1.77
2023-07-03T07:38:56.736Z,2.10
2023-07-03T07:41:05.511Z,1.60
2023-07-03T07:43:14.522Z,1.83
2023-07-03T07:45:24.098Z,1.80
2023-07-03T07:47:32.661Z,1.77
2023-07-03T07:49:43.090Z,1.70
2023-07-03T07:51:51.246Z,1.60
2023-07-03T07:54:00.174Z,1.73
2023-07-03T07:56:09.997Z,1.90
2023-07-03T07:58:18.416Z,1.73
2023-07-03T08:00:28.115Z,2.20
2023-07-03T08:02:36.536Z,1.83
2023-07-03T08:04:45.903Z,1.70
2023-07-03T08:06:54.200Z,1.80
2023-07-03T08:09:02.411Z,1.73
2023-07-03T08:11:14.830Z,1.73
2023-07-03T08:13:26.721Z,1.90
2023-07-03T08:15:36.694Z,1.90
2023-07-03T08:17:44.915Z,1.50
2023-07-03T08:19:53.178Z,1.57
2023-07-03T08:22:04.155Z,1.50
2023-07-03T08:24:12.312Z,1.60
2023-07-03T08:26:22.772Z,1.77
2023-07-03T08:28:31.726Z,1.50
2023-07-03T08:30:41.287Z,1.50
2023-07-03T08:32:49.798Z,2.17
2023-07-03T08:37:09.682Z,1.40
2023-07-03T08:39:17.811Z,1.90
2023-07-03T08:41:26.191Z,1.50
2023-07-03T08:43:38.338Z,1.90
2023-07-03T08:45:50.500Z,2.00
2023-07-03T08:48:00.892Z,1.90
2023-07-03T08:50:10.952Z,1.63
2023-07-03T08:52:30.649Z,1.90
2023-07-03T08:54:42.361Z,1.93
2023-07-03T08:56:50.959Z,2.10
2023-07-03T08:59:03.999Z,1.80
2023-07-03T09:01:22.583Z,1.97
2023-07-03T09:03:42.896Z,1.97
2023-07-03T09:06:01.028Z,2.00
2023-07-03T09:08:16.203Z,2.13
2023-07-03T09:10:29.020Z,2.00
2023-07-03T09:12:44.069Z,2.10
2023-07-03T09:14:56.853Z,2.10
2023-07-03T09:17:09.751Z,2.20
2023-07-03T09:19:22.413Z,2.50
2023-07-03T09:21:32.866Z,2.13
2023-07-03T09:23:44.956Z,2.10
2023-07-03T09:25:59.632Z,2.00
2023-07-03T09:28:12.095Z,2.00
2023-07-03T09:30:22.646Z,1.97
2023-07-03T09:32:33.679Z,1.87
2023-07-03T09:35:08.472Z,1.80
2023-07-03T09:37:17.694Z,2.07
2023-07-03T09:39:25.886Z,2.00
2023-07-03T09:41:37.494Z,2.23
2023-07-03T09:43:46.810Z,2.37
2023-07-03T09:46:05.866Z,2.00
2023-07-03T09:48:19.440Z,2.00
2023-07-03T09:50:29.970Z,1.73
2023-07-03T09:52:52.284Z,2.20
2023-07-03T09:55:14.102Z,1.90
2023-07-03T09:57:25.543Z,1.87
2023-07-03T09:59:34.018Z,2.03
2023-07-03T10:06:35.676Z,2.10
2023-07-03T10:08:45.754Z,1.67
2023-07-03T10:13:09.938Z,2.00
2023-07-03T10:15:21.685Z,2.27
2023-07-03T10:17:34.851Z,2.13
2023-07-03T10:19:45.352Z,2.00
2023-07-03T10:21:55.003Z,2.20
2023-07-03T10:24:04.182Z,1.90
2023-07-03T10:26:16.134Z,1.90
2023-07-03T10:28:28.865Z,2.00
2023-07-03T10:30:40.653Z,1.60
2023-07-03T10:32:51.035Z,1.80
2023-07-03T10:35:06.130Z,1.70
2023-07-03T10:37:18.177Z,1.70
2023-07-03T10:39:33.995Z,1.40
2023-07-03T10:41:45.437Z,1.20
2023-07-03T10:43:59.274Z,1.60
2023-07-03T10:46:09.462Z,1.40
2023-07-03T10:48:20.161Z,1.50
2023-07-03T10:50:33.064Z,1.70
2023-07-03T10:52:46.334Z,1.50
2023-07-03T10:54:57.972Z,1.70
2023-07-03T10:57:08.498Z,1.50
2023-07-03T10:59:21.361Z,1.87
2023-07-03T11:01:34.412Z,1.80
2023-07-03T11:03:47.673Z,1.90
2023-07-03T11:06:02.072Z,1.60
2023-07-03T11:08:16.126Z,1.80
2023-07-03T11:10:27.761Z,1.97
2023-07-03T11:12:39.879Z,1.40
2023-07-03T11:14:52.454Z,1.47
2023-07-03T11:17:12.264Z,1.50
2023-07-03T11:23:59.627Z,1.27
2023-07-03T11:28:29.139Z,1.50
2023-07-03T11:30:38.732Z,1.70
2023-07-03T11:32:50.708Z,1.60
2023-07-03T11:37:25.478Z,1.60
2023-07-03T11:44:17.672Z,1.40
2023-07-03T11:46:28.034Z,1.40
2023-07-03T11:48:43.170Z,1.70
2023-07-03T11:50:57.609Z,1.43
2023-07-03T11:53:06.114Z,1.30
2023-07-03T11:55:19.024Z,1.40
2023-07-03T11:57:33.001Z,1.33
2023-07-03T11:59:42.712Z,1.40
2023-07-03T12:01:51.241Z,1.53
2023-07-03T12:04:01.407Z,1.30
2023-07-03T12:06:09.948Z,1.23
2023-07-03T12:08:33.318Z,1.60
2023-07-03T12:10:48.252Z,1.40
2023-07-03T12:13:15.461Z,1.30
2023-07-03T12:15:24.005Z,1.47
2023-07-03T12:17:35.707Z,1.60
2023-07-03T12:19:44.158Z,1.40
2023-07-03T12:21:52.877Z,1.53
2023-07-03T12:24:01.365Z,1.43
2023-07-03T12:26:12.306Z,1.63
2023-07-03T12:28:21.357Z,1.60
2023-07-03T12:30:30.988Z,1.50
2023-07-03T12:32:39.661Z,1.40
2023-07-03T12:34:49.563Z,1.50
2023-07-03T12:37:02.832Z,1.70
2023-07-03T12:39:14.432Z,1.23
2023-07-03T12:41:31.678Z,1.20
2023-07-03T12:43:40.530Z,1.53
2023-07-03T12:45:53.274Z,1.33
2023-07-03T12:48:02.995Z,1.60
2023-07-03T12:50:19.942Z,1.57
2023-07-03T12:52:29.466Z,1.40
2023-07-03T12:54:41.039Z,1.50
2023-07-03T12:56:52.180Z,1.67
2023-07-03T12:59:00.698Z,1.57
2023-07-03T13:01:09.849Z,1.80
2023-07-03T13:03:22.221Z,1.57
2023-07-03T13:05:33.575Z,1.70
2023-07-03T13:07:44.358Z,1.73
2023-07-03T13:09:54.012Z,1.87
2023-07-03T13:12:06.467Z,1.67
2023-07-03T13:14:16.683Z,1.93
2023-07-03T13:16:33.570Z,2.03
2023-07-03T13:18:42.850Z,2.10
2023-07-03T13:21:01.253Z,1.80
2023-07-03T13:23:11.446Z,1.57
2023-07-03T13:25:27.298Z,1.97
2023-07-03T13:27:37.363Z,1.80
2023-07-03T13:29:45.945Z,2.00
2023-07-03T13:31:54.486Z,1.83
2023-07-03T13:34:04.240Z,1.67
2023-07-03T13:36:23.310Z,1.80
2023-07-03T13:38:32.983Z,2.00
2023-07-03T13:40:41.572Z,1.83
2023-07-03T13:42:59.655Z,1.73
2023-07-03T13:45:10.500Z,1.90
2023-07-03T13:47:19.137Z,1.83
2023-07-03T13:49:30.489Z,1.67
2023-07-03T13:51:40.243Z,1.70
2023-07-03T13:53:51.156Z,1.40
2023-07-03T13:56:04.624Z,1.50
2023-07-03T13:58:14.488Z,1.53
2023-07-03T14:00:23.109Z,1.37
2023-07-03T14:02:46.761Z,1.90
2023-07-03T14:04:56.959Z,1.63
2023-07-03T14:07:05.602Z,1.60
2023-07-03T14:09:15.334Z,2.00
2023-07-03T14:11:23.917Z,1.80
2023-07-03T14:13:34.282Z,2.00
2023-07-03T14:15:43.518Z,2.07
2023-07-03T14:17:52.395Z,1.70
2023-07-03T14:20:00.910Z,2.10
2023-07-03T14:22:10.021Z,1.83
2023-07-03T14:24:18.476Z,2.00
2023-07-03T14:26:27.110Z,2.17
2023-07-03T14:28:38.946Z,1.53
2023-07-03T14:30:48.479Z,1.60
2023-07-03T14:32:59.824Z,1.83
2023-07-03T14:35:09.163Z,1.73
2023-07-03T14:37:20.466Z,1.90
2023-07-03T14:39:28.879Z,2.10
2023-07-03T14:41:37.357Z,2.13
2023-07-03T14:43:48.267Z,1.60
2023-07-03T14:45:56.790Z,2.13
2023-07-03T14:48:05.434Z,2.20
2023-07-03T14:50:14.477Z,2.10
2023-07-03T14:52:28.091Z,2.37
2023-07-03T14:54:39.354Z,2.10
2023-07-03T14:56:48.013Z,2.00
2023-07-03T14:58:57.995Z,2.27
2023-07-03T15:01:06.850Z,2.03
2023-07-03T15:03:15.535Z,1.90
2023-07-03T15:05:24.177Z,1.70
2023-07-03T15:07:32.764Z,2.00
2023-07-03T15:09:41.287Z,1.93
2023-07-03T15:11:52.143Z,1.73
2023-07-03T15:14:02.106Z,2.43
2023-07-03T15:16:10.625Z,1.87
2023-07-03T15:18:19.223Z,1.97
2023-07-03T15:20:27.785Z,1.90
2023-07-03T15:22:36.491Z,1.70
2023-07-03T15:24:45.915Z,1.90
2023-07-03T15:26:54.455Z,1.83
2023-07-03T15:29:04.316Z,1.90
2023-07-03T15:31:12.928Z,1.97
2023-07-03T15:33:21.428Z,1.90
2023-07-03T15:35:29.939Z,1.70
2023-07-03T15:37:38.563Z,2.10
2023-07-03T15:39:47.100Z,1.77
2023-07-03T15:41:55.840Z,1.53
2023-07-03T15:44:06.001Z,1.70
2023-07-03T15:46:15.473Z,1.80
2023-07-03T15:48:23.981Z,1.70
2023-07-03T15:50:32.590Z,1.93
2023-07-03T15:52:40.981Z,1.70
2023-07-03T15:54:51.074Z,1.90
2023-07-03T15:56:59.573Z,1.80
2023-07-03T15:59:09.439Z,1.80
2023-07-03T16:01:19.298Z,1.70
2023-07-03T16:03:28.037Z,1.80
2023-07-03T16:05:36.573Z,1.70
2023-07-03T16:07:46.395Z,1.63
2023-07-03T16:09:54.921Z,1.83
2023-07-03T16:12:03.462Z,1.47
2023-07-03T16:14:13.403Z,1.37
2023-07-03T16:16:22.724Z,1.40
2023-07-03T16:18:31.954Z,1.60
2023-07-03T16:20:42.860Z,1.70
2023-07-03T16:22:52.913Z,1.77
2023-07-03T16:25:01.500Z,1.30
2023-07-03T16:27:09.974Z,1.27
2023-07-03T16:29:20.850Z,1.37
2023-07-03T16:31:30.111Z,1.60
2023-07-03T16:33:39.420Z,1.40
2023-07-03T16:35:56.721Z,1.30
2023-07-03T16:38:05.197Z,1.30
2023-07-03T16:40:14.059Z,1.60
2023-07-03T16:42:22.715Z,1.40
2023-07-03T16:44:32.610Z,1.40
2023-07-03T16:46:41.125Z,1.40
2023-07-03T16:48:50.167Z,1.63
2023-07-03T16:50:59.844Z,1.60
2023-07-03T16:53:08.456Z,1.40
2023-07-03T16:55:16.933Z,1.50
2023-07-03T16:57:25.358Z,1.50
2023-07-03T16:59:36.439Z,1.43
2023-07-03T17:01:45.402Z,1.60
2023-07-03T17:03:54.645Z,1.40
2023-07-03T17:06:03.985Z,1.20
2023-07-03T17:08:12.444Z,1.80
2023-07-03T17:10:22.955Z,1.50
2023-07-03T17:12:31.392Z,1.60
2023-07-03T17:14:41.348Z,1.67
2023-07-03T17:16:50.209Z,1.43
2023-07-03T17:18:58.952Z,1.70
2023-07-03T17:21:07.488Z,1.60
2023-07-03T17:23:18.145Z,1.57
2023-07-03T17:25:26.720Z,1.40
2023-07-03T17:27:35.442Z,1.50
2023-07-03T17:29:45.608Z,1.70
2023-07-03T17:31:54.077Z,1.70
2023-07-03T17:34:03.087Z,1.50
2023-07-03T17:36:11.610Z,1.50
2023-07-03T17:38:20.092Z,1.57
2023-07-03T17:40:28.648Z,1.57
2023-07-03T17:42:37.089Z,1.60
2023-07-03T17:44:47.190Z,1.80
2023-07-03T17:46:55.691Z,1.60
2023-07-03T17:49:04.371Z,1.73
2023-07-03T17:51:13.385Z,1.50
2023-07-03T17:53:24.310Z,1.80
2023-07-03T17:55:33.483Z,1.77
2023-07-03T17:57:41.984Z,1.73
2023-07-03T17:59:51.950Z,1.70
2023-07-03T18:02:00.525Z,1.60
2023-07-03T18:04:10.110Z,1.60
2023-07-03T18:06:18.638Z,1.53
2023-07-03T18:08:27.290Z,1.70
2023-07-03T18:10:36.537Z,2.10
2023-07-03T18:12:45.323Z,1.90
2023-07-03T18:14:57.966Z,1.90
2023-07-03T18:17:07.533Z,2.07
2023-07-03T18:19:15.983Z,2.10
2023-07-03T18:21:24.507Z,2.20
2023-07-03T18:23:33.118Z,2.10
2023-07-03T18:25:41.873Z,2.47
2023-07-03T18:27:50.881Z,2.40
2023-07-03T18:30:00.923Z,2.50
2023-07-03T18:32:11.274Z,2.57
2023-07-03T18:34:19.884Z,2.50
2023-07-03T18:36:28.298Z,3.20
2023-07-03T18:38:36.833Z,2.77
2023-07-03T18:40:45.905Z,3.10
2023-07-03T18:42:54.405Z,2.77
2023-07-03T18:45:08.172Z,2.67
2023-07-03T18:47:17.345Z,2.73
2023-07-03T18:49:25.921Z,2.90
2023-07-03T18:51:34.492Z,2.63
2023-07-03T18:53:43.302Z,3.13
2023-07-03T18:55:52.028Z,3.67
2023-07-03T18:58:01.053Z,3.00
2023-07-03T19:00:11.765Z,2.93
2023-07-03T19:02:20.547Z,3.27
2023-07-03T19:04:29.313Z,3.20
2023-07-03T19:06:37.836Z,3.60
2023-07-03T19:08:46.500Z,3.63
2023-07-03T19:10:55.093Z,3.50
2023-07-03T19:13:03.568Z,3.43
2023-07-03T19:15:16.307Z,3.87
2023-07-03T19:17:24.861Z,3.47
2023-07-03T19:19:33.331Z,3.87
2023-07-03T19:21:41.817Z,3.67
2023-07-03T19:23:50.270Z,3.70
2023-07-03T19:26:00.055Z,3.60
2023-07-03T19:28:09.085Z,4.20
2023-07-03T19:30:19.380Z,3.87
2023-07-03T19:32:28.515Z,3.90
2023-07-03T19:34:38.776Z,4.13
2023-07-03T19:36:47.284Z,3.73
2023-07-03T19:38:56.558Z,4.00
2023-07-03T19:41:05.169Z,3.80
2023-07-03T19:43:13.894Z,3.63
2023-07-03T19:45:26.650Z,3.60
2023-07-03T19:47:35.359Z,3.60
2023-07-03T19:49:46.706Z,3.90
2023-07-03T19:51:56.958Z,3.67
2023-07-03T19:54:07.135Z,3.50
2023-07-03T19:56:18.286Z,3.60
2023-07-03T19:58:27.215Z,3.07
2023-07-03T20:00:37.687Z,3.13
2023-07-03T20:02:46.521Z,3.20
2023-07-03T20:04:56.021Z,3.30
2023-07-03T20:07:08.346Z,3.07
2023-07-03T20:09:16.910Z,3.30
2023-07-03T20:11:26.016Z,3.67
2023-07-03T20:13:34.619Z,3.20
2023-07-03T20:15:45.074Z,3.23
2023-07-03T20:17:54.949Z,2.83
2023-07-03T20:20:03.607Z,3.23
2023-07-03T20:22:12.090Z,2.90
2023-07-03T20:24:21.609Z,3.33
2023-07-03T20:26:30.598Z,3.63
2023-07-03T20:28:39.261Z,3.30
2023-07-03T20:30:50.197Z,3.60
2023-07-03T20:33:00.740Z,3.00
2023-07-03T20:35:09.483Z,3.07
2023-07-03T20:37:17.879Z,3.10
2023-07-03T20:39:26.502Z,3.73
2023-07-03T20:41:37.182Z,3.03
2023-07-03T20:43:45.853Z,3.10
2023-07-03T20:46:03.801Z,3.10
2023-07-03T20:48:12.341Z,3.20
2023-07-03T20:50:25.990Z,3.30
2023-07-03T20:52:36.650Z,3.20
2023-07-03T20:54:55.399Z,3.00
2023-07-03T20:57:04.268Z,3.43
2023-07-03T20:59:12.853Z,3.17
2023-07-03T21:01:26.776Z,3.23
2023-07-03T21:03:35.864Z,3.30
2023-07-03T21:05:44.575Z,3.10
2023-07-03T21:07:53.136Z,3.40
2023-07-03T21:10:01.777Z,3.43
2023-07-03T21:12:10.394Z,3.00
2023-07-03T21:14:19.562Z,3.30
2023-07-03T21:16:29.487Z,2.73
2023-07-03T21:18:38.018Z,3.20
2023-07-03T21:20:47.116Z,3.10
2023-07-03T21:22:55.592Z,2.97
2023-07-03T21:25:04.601Z,3.30
2023-07-03T21:27:13.396Z,3.10
2023-07-03T21:29:21.862Z,3.10
2023-07-03T21:31:40.195Z,2.93
2023-07-03T21:33:48.850Z,3.00
2023-07-03T21:36:06.455Z,2.63
2023-07-03T21:38:14.878Z,3.00
2023-07-03T21:40:23.279Z,3.30
2023-07-03T21:42:31.803Z,3.40
2023-07-03T21:44:40.320Z,3.00
2023-07-03T21:46:50.140Z,3.20
2023-07-03T21:48:59.347Z,3.23
2023-07-03T21:51:08.191Z,2.97
2023-07-03T21:53:18.545Z,3.57
2023-07-03T21:55:27.049Z,3.17
2023-07-03T21:57:35.504Z,2.63
2023-07-03T21:59:45.010Z,2.90
2023-07-03T22:01:54.893Z,3.10
2023-07-03T22:04:04.025Z,3.93
2023-07-03T22:06:12.569Z,2.23
2023-07-03T22:08:22.284Z,2.50
2023-07-03T22:10:31.191Z,3.20
2023-07-03T22:12:39.652Z,3.27
2023-07-03T22:14:48.130Z,2.73
2023-07-03T22:16:57.984Z,3.00
2023-07-03T22:19:08.719Z,2.67
2023-07-03T22:21:20.267Z,2.33
2023-07-03T22:23:31.940Z,2.83
2023-07-03T22:25:41.019Z,2.57
2023-07-03T22:27:49.661Z,2.77
2023-07-03T22:29:58.155Z,2.37
2023-07-03T22:32:09.377Z,3.10
2023-07-03T22:34:17.902Z,2.60
2023-07-03T22:36:26.847Z,2.93
2023-07-03T22:38:35.383Z,3.03
2023-07-03T22:40:43.933Z,2.97
2023-07-03T22:42:52.435Z,2.50
2023-07-03T22:45:03.698Z,2.87
2023-07-03T22:47:13.681Z,2.73
2023-07-03T22:49:25.626Z,2.90
2023-07-03T22:51:34.463Z,2.20
2023-07-03T22:53:43.008Z,3.00
2023-07-03T22:55:51.731Z,2.77
2023-07-03T22:58:00.645Z,2.40
2023-07-03T23:00:12.040Z,2.80
2023-07-03T23:02:25.018Z,2.70
2023-07-03T23:04:36.340Z,2.80
2023-07-03T23:06:44.807Z,3.20
2023-07-03T23:08:53.373Z,2.73
2023-07-03T23:11:04.324Z,2.50
2023-07-03T23:13:12.819Z,2.67
2023-07-03T23:15:21.292Z,2.70
2023-07-03T23:17:32.181Z,2.63
2023-07-03T23:19:40.742Z,2.67
2023-07-03T23:21:51.081Z,2.77
2023-07-03T23:23:59.646Z,2.37
2023-07-03T23:26:12.215Z,2.73
2023-07-03T23:28:20.842Z,2.53
2023-07-03T23:30:31.674Z,2.27
2023-07-03T23:32:41.732Z,2.00
2023-07-03T23:34:51.346Z,2.40
2023-07-03T23:37:02.306Z,2.30
2023-07-03T23:39:10.947Z,2.40
2023-07-03T23:41:19.803Z,2.20
2023-07-03T23:43:30.530Z,2.63
2023-07-03T23:45:39.031Z,2.93
2023-07-03T23:47:51.457Z,2.80
2023-07-03T23:50:02.054Z,2.57
2023-07-03T23:52:10.563Z,2.90
2023-07-03T23:54:19.047Z,2.80
2023-07-03T23:56:27.700Z,3.07
2023-07-03T23:58:36.973Z,2.73
